sensor_id;sensor_type;location;lat;lon;timestamp;temperature;humidity
35395;DHT22;21500;45.308;9.488;2023-08-06T00:01:20;21.10;99.90
35395;DHT22;21500;45.308;9.488;2023-08-06T00:04:09;21.10;99.90
35395;DHT22;21500;45.308;9.488;2023-08-06T00:06:44;21.00;99.90
35395;DHT22;21500;45.308;9.488;2023-08-06T00:09:12;21.10;99.90
35395;DHT22;21500;45.308;9.488;2023-08-06T00:11:40;21.10;99.90
35395;DHT22;21500;45.308;9.488;2023-08-06T00:14:15;21.00;99.90
35395;DHT22;21500;45.308;9.488;2023-08-06T00:16:44;21.00;99.90
35395;DHT22;21500;45.308;9.488;2023-08-06T00:19:18;21.00;99.90
35395;DHT22;21500;45.308;9.488;2023-08-06T00:21:45;21.10;99.90
35395;DHT22;21500;45.308;9.488;2023-08-06T00:24:16;21.10;99.90
35395;DHT22;21500;45.308;9.488;2023-08-06T00:26:53;20.90;99.90
35395;DHT22;21500;45.308;9.488;2023-08-06T00:29:47;21.00;99.90
35395;DHT22;21500;45.308;9.488;2023-08-06T00:32:27;21.00;99.90
35395;DHT22;21500;45.308;9.488;2023-08-06T00:35:21;21.00;99.90
35395;DHT22;21500;45.308;9.488;2023-08-06T00:37:56;20.90;99.90
35395;DHT22;21500;45.308;9.488;2023-08-06T00:40:32;21.00;99.90
35395;DHT22;21500;45.308;9.488;2023-08-06T00:43:05;20.90;99.90
35395;DHT22;21500;45.308;9.488;2023-08-06T00:45:56;20.90;99.90
35395;DHT22;21500;45.308;9.488;2023-08-06T00:48:23;20.90;99.90
35395;DHT22;21500;45.308;9.488;2023-08-06T00:50:50;20.90;99.90
35395;DHT22;21500;45.308;9.488;2023-08-06T00:53:16;20.90;99.90
35395;DHT22;21500;45.308;9.488;2023-08-06T00:55:46;20.90;99.90
35395;DHT22;21500;45.308;9.488;2023-08-06T01:02:01;21.00;99.90
35395;DHT22;21500;45.308;9.488;2023-08-06T01:04:29;20.90;99.90
35395;DHT22;21500;45.308;9.488;2023-08-06T01:21:59;20.90;99.90
35395;DHT22;21500;45.308;9.488;2023-08-06T01:24:29;20.90;99.90
35395;DHT22;21500;45.308;9.488;2023-08-06T01:27:13;20.80;99.90
35395;DHT22;21500;45.308;9.488;2023-08-06T01:30:29;20.90;99.90
35395;DHT22;21500;45.308;9.488;2023-08-06T01:33:10;21.00;99.90
35395;DHT22;21500;45.308;9.488;2023-08-06T01:35:41;20.90;99.90
35395;DHT22;21500;45.308;9.488;2023-08-06T01:38:24;21.00;99.90
35395;DHT22;21500;45.308;9.488;2023-08-06T01:40:57;20.90;99.90
35395;DHT22;21500;45.308;9.488;2023-08-06T01:43:37;20.90;99.90
35395;DHT22;21500;45.308;9.488;2023-08-06T01:46:05;20.90;99.90
35395;DHT22;21500;45.308;9.488;2023-08-06T01:48:39;20.90;99.90
35395;DHT22;21500;45.308;9.488;2023-08-06T01:51:10;20.90;99.90
35395;DHT22;21500;45.308;9.488;2023-08-06T01:54:07;20.70;99.90
35395;DHT22;21500;45.308;9.488;2023-08-06T01:56:47;20.70;99.90
35395;DHT22;21500;45.308;9.488;2023-08-06T01:59:25;20.60;99.90
35395;DHT22;21500;45.308;9.488;2023-08-06T02:02:06;20.40;99.90
35395;DHT22;21500;45.308;9.488;2023-08-06T02:04:32;20.50;99.90
35395;DHT22;21500;45.308;9.488;2023-08-06T02:07:07;20.50;99.90
35395;DHT22;21500;45.308;9.488;2023-08-06T02:09:36;20.50;99.90
35395;DHT22;21500;45.308;9.488;2023-08-06T02:12:06;20.60;99.90
35395;DHT22;21500;45.308;9.488;2023-08-06T02:14:39;20.70;99.90
35395;DHT22;21500;45.308;9.488;2023-08-06T02:17:09;20.80;99.90
35395;DHT22;21500;45.308;9.488;2023-08-06T02:19:44;20.70;99.90
35395;DHT22;21500;45.308;9.488;2023-08-06T02:22:23;20.60;99.90
35395;DHT22;21500;45.308;9.488;2023-08-06T02:25:01;20.60;99.90
35395;DHT22;21500;45.308;9.488;2023-08-06T02:27:58;20.70;99.90
35395;DHT22;21500;45.308;9.488;2023-08-06T02:30:28;20.70;99.90
35395;DHT22;21500;45.308;9.488;2023-08-06T02:32:59;20.60;99.90
35395;DHT22;21500;45.308;9.488;2023-08-06T02:35:32;20.60;99.90
35395;DHT22;21500;45.308;9.488;2023-08-06T02:38:37;20.70;99.90
35395;DHT22;21500;45.308;9.488;2023-08-06T02:41:13;20.70;99.90
35395;DHT22;21500;45.308;9.488;2023-08-06T02:43:43;20.60;99.90
35395;DHT22;21500;45.308;9.488;2023-08-06T02:46:18;20.60;99.90
35395;DHT22;21500;45.308;9.488;2023-08-06T02:48:59;20.70;99.90
35395;DHT22;21500;45.308;9.488;2023-08-06T02:51:27;20.80;99.90
35395;DHT22;21500;45.308;9.488;2023-08-06T02:54:01;20.60;99.90
35395;DHT22;21500;45.308;9.488;2023-08-06T02:56:37;20.50;99.90
35395;DHT22;21500;45.308;9.488;2023-08-06T02:59:36;20.50;99.90
35395;DHT22;21500;45.308;9.488;2023-08-06T03:02:14;20.50;99.90
35395;DHT22;21500;45.308;9.488;2023-08-06T03:05:04;20.50;99.90
35395;DHT22;21500;45.308;9.488;2023-08-06T03:08:16;20.60;99.90
35395;DHT22;21500;45.308;9.488;2023-08-06T03:14:42;20.20;99.90
35395;DHT22;21500;45.308;9.488;2023-08-06T03:21:33;20.20;99.90
35395;DHT22;21500;45.308;9.488;2023-08-06T03:24:04;20.10;99.90
35395;DHT22;21500;45.308;9.488;2023-08-06T03:26:51;20.00;99.90
35395;DHT22;21500;45.308;9.488;2023-08-06T03:29:43;19.90;99.90
35395;DHT22;21500;45.308;9.488;2023-08-06T08:27:10;23.40;99.90
35395;DHT22;21500;45.308;9.488;2023-08-06T08:29:36;23.70;99.90
35395;DHT22;21500;45.308;9.488;2023-08-06T08:32:02;23.60;99.90
35395;DHT22;21500;45.308;9.488;2023-08-06T08:34:27;23.60;99.90
35395;DHT22;21500;45.308;9.488;2023-08-06T08:36:53;23.40;99.90
35395;DHT22;21500;45.308;9.488;2023-08-06T08:39:19;24.10;99.90
35395;DHT22;21500;45.308;9.488;2023-08-06T08:41:45;24.90;99.90
35395;DHT22;21500;45.308;9.488;2023-08-06T08:44:11;24.60;99.90
35395;DHT22;21500;45.308;9.488;2023-08-06T08:46:40;24.30;99.90
35395;DHT22;21500;45.308;9.488;2023-08-06T08:49:07;24.50;99.90
35395;DHT22;21500;45.308;9.488;2023-08-06T08:51:33;24.80;99.90
35395;DHT22;21500;45.308;9.488;2023-08-06T08:54:03;24.40;99.90
35395;DHT22;21500;45.308;9.488;2023-08-06T08:56:29;24.50;99.90
35395;DHT22;21500;45.308;9.488;2023-08-06T08:58:55;24.70;99.90
35395;DHT22;21500;45.308;9.488;2023-08-06T09:01:24;24.80;99.90
35395;DHT22;21500;45.308;9.488;2023-08-06T09:03:51;25.00;99.90
35395;DHT22;21500;45.308;9.488;2023-08-06T09:06:20;25.20;99.90
35395;DHT22;21500;45.308;9.488;2023-08-06T09:11:55;25.20;99.90
35395;DHT22;21500;45.308;9.488;2023-08-06T09:14:28;25.30;99.90
35395;DHT22;21500;45.308;9.488;2023-08-06T09:17:02;25.60;99.90
35395;DHT22;21500;45.308;9.488;2023-08-06T09:19:35;25.70;99.90
35395;DHT22;21500;45.308;9.488;2023-08-06T09:22:01;25.10;99.90
35395;DHT22;21500;45.308;9.488;2023-08-06T09:24:28;25.20;99.90
35395;DHT22;21500;45.308;9.488;2023-08-06T09:26:55;25.50;99.90
35395;DHT22;21500;45.308;9.488;2023-08-06T09:29:21;25.60;99.90
35395;DHT22;21500;45.308;9.488;2023-08-06T09:31:49;25.30;99.90
35395;DHT22;21500;45.308;9.488;2023-08-06T09:34:18;25.60;99.90
35395;DHT22;21500;45.308;9.488;2023-08-06T09:36:55;25.80;99.90
35395;DHT22;21500;45.308;9.488;2023-08-06T09:39:30;26.10;99.90
35395;DHT22;21500;45.308;9.488;2023-08-06T09:42:05;25.70;99.90
35395;DHT22;21500;45.308;9.488;2023-08-06T09:45:05;25.70;99.90
35395;DHT22;21500;45.308;9.488;2023-08-06T09:47:34;26.00;99.90
35395;DHT22;21500;45.308;9.488;2023-08-06T09:50:02;26.10;99.90
35395;DHT22;21500;45.308;9.488;2023-08-06T09:52:32;26.10;99.90
35395;DHT22;21500;45.308;9.488;2023-08-06T09:55:01;25.90;99.90
35395;DHT22;21500;45.308;9.488;2023-08-06T09:57:30;26.10;99.90
35395;DHT22;21500;45.308;9.488;2023-08-06T10:00:03;26.40;99.90
35395;DHT22;21500;45.308;9.488;2023-08-06T10:02:43;26.50;99.90
35395;DHT22;21500;45.308;9.488;2023-08-06T10:05:10;26.50;99.90
35395;DHT22;21500;45.308;9.488;2023-08-06T10:07:37;26.40;99.90
35395;DHT22;21500;45.308;9.488;2023-08-06T10:10:06;26.60;99.90
35395;DHT22;21500;45.308;9.488;2023-08-06T10:12:36;26.80;99.90
35395;DHT22;21500;45.308;9.488;2023-08-06T10:15:06;27.30;99.90
35395;DHT22;21500;45.308;9.488;2023-08-06T10:17:34;27.50;99.90
35395;DHT22;21500;45.308;9.488;2023-08-06T10:20:02;26.80;99.90
35395;DHT22;21500;45.308;9.488;2023-08-06T10:22:32;27.10;99.90
35395;DHT22;21500;45.308;9.488;2023-08-06T10:25:00;27.10;99.90
35395;DHT22;21500;45.308;9.488;2023-08-06T10:27:34;27.30;99.90
35395;DHT22;21500;45.308;9.488;2023-08-06T10:30:32;27.30;99.90
35395;DHT22;21500;45.308;9.488;2023-08-06T10:33:04;27.80;99.90
35395;DHT22;21500;45.308;9.488;2023-08-06T10:35:38;27.40;99.90
35395;DHT22;21500;45.308;9.488;2023-08-06T10:38:12;27.40;99.90
35395;DHT22;21500;45.308;9.488;2023-08-06T10:40:50;27.70;99.90
35395;DHT22;21500;45.308;9.488;2023-08-06T10:43:48;27.30;99.90
35395;DHT22;21500;45.308;9.488;2023-08-06T10:46:27;27.40;99.90
35395;DHT22;21500;45.308;9.488;2023-08-06T10:48:54;27.50;99.90
35395;DHT22;21500;45.308;9.488;2023-08-06T10:51:21;27.40;99.90
35395;DHT22;21500;45.308;9.488;2023-08-06T10:53:49;27.90;99.90
35395;DHT22;21500;45.308;9.488;2023-08-06T10:56:16;27.90;99.60
35395;DHT22;21500;45.308;9.488;2023-08-06T10:58:43;28.30;99.80
35395;DHT22;21500;45.308;9.488;2023-08-06T11:01:11;28.20;99.90
35395;DHT22;21500;45.308;9.488;2023-08-06T11:03:37;28.30;98.60
35395;DHT22;21500;45.308;9.488;2023-08-06T11:06:06;28.60;95.20
35395;DHT22;21500;45.308;9.488;2023-08-06T11:08:37;28.60;94.50
35395;DHT22;21500;45.308;9.488;2023-08-06T11:11:13;28.80;93.90
35395;DHT22;21500;45.308;9.488;2023-08-06T11:13:41;28.40;94.10
35395;DHT22;21500;45.308;9.488;2023-08-06T11:16:07;28.50;93.10
35395;DHT22;21500;45.308;9.488;2023-08-06T11:18:33;28.90;92.40
35395;DHT22;21500;45.308;9.488;2023-08-06T11:21:00;28.30;94.50
35395;DHT22;21500;45.308;9.488;2023-08-06T11:23:29;28.10;94.90
35395;DHT22;21500;45.308;9.488;2023-08-06T11:25:57;28.10;96.90
35395;DHT22;21500;45.308;9.488;2023-08-06T11:28:23;28.20;95.30
35395;DHT22;21500;45.308;9.488;2023-08-06T11:30:50;28.30;94.80
35395;DHT22;21500;45.308;9.488;2023-08-06T11:33:26;27.90;94.00
35395;DHT22;21500;45.308;9.488;2023-08-06T11:35:52;27.70;94.10
35395;DHT22;21500;45.308;9.488;2023-08-06T11:38:20;28.20;93.00
35395;DHT22;21500;45.308;9.488;2023-08-06T11:40:46;27.90;93.30
35395;DHT22;21500;45.308;9.488;2023-08-06T11:43:13;27.90;92.30
35395;DHT22;21500;45.308;9.488;2023-08-06T11:45:39;28.10;92.90
35395;DHT22;21500;45.308;9.488;2023-08-06T11:48:06;27.80;90.50
35395;DHT22;21500;45.308;9.488;2023-08-06T11:50:37;28.00;87.00
35395;DHT22;21500;45.308;9.488;2023-08-06T11:53:04;28.10;87.70
35395;DHT22;21500;45.308;9.488;2023-08-06T11:55:30;28.50;87.50
35395;DHT22;21500;45.308;9.488;2023-08-06T11:57:57;28.20;85.60
35395;DHT22;21500;45.308;9.488;2023-08-06T12:00:24;28.30;85.90
35395;DHT22;21500;45.308;9.488;2023-08-06T12:02:51;28.40;82.30
35395;DHT22;21500;45.308;9.488;2023-08-06T12:05:29;28.20;85.20
35395;DHT22;21500;45.308;9.488;2023-08-06T12:08:00;28.60;84.70
35395;DHT22;21500;45.308;9.488;2023-08-06T12:10:28;28.60;83.30
35395;DHT22;21500;45.308;9.488;2023-08-06T12:12:54;28.40;82.90
35395;DHT22;21500;45.308;9.488;2023-08-06T12:15:21;28.60;84.70
35395;DHT22;21500;45.308;9.488;2023-08-06T12:17:47;28.10;81.60
35395;DHT22;21500;45.308;9.488;2023-08-06T12:20:13;28.40;81.90
35395;DHT22;21500;45.308;9.488;2023-08-06T12:22:39;28.00;77.90
35395;DHT22;21500;45.308;9.488;2023-08-06T12:25:10;28.20;81.80
35395;DHT22;21500;45.308;9.488;2023-08-06T12:27:39;28.60;83.50
35395;DHT22;21500;45.308;9.488;2023-08-06T12:30:06;28.40;79.30
35395;DHT22;21500;45.308;9.488;2023-08-06T12:32:32;28.20;82.20
35395;DHT22;21500;45.308;9.488;2023-08-06T12:34:58;28.70;83.40
35395;DHT22;21500;45.308;9.488;2023-08-06T12:37:25;28.70;83.40
35395;DHT22;21500;45.308;9.488;2023-08-06T12:39:52;28.30;84.20
35395;DHT22;21500;45.308;9.488;2023-08-06T12:42:18;28.20;83.10
35395;DHT22;21500;45.308;9.488;2023-08-06T12:44:43;28.70;84.20
35395;DHT22;21500;45.308;9.488;2023-08-06T12:47:09;28.90;84.50
35395;DHT22;21500;45.308;9.488;2023-08-06T12:49:35;28.40;82.10
35395;DHT22;21500;45.308;9.488;2023-08-06T12:52:01;28.60;83.40
35395;DHT22;21500;45.308;9.488;2023-08-06T12:54:28;28.40;83.90
35395;DHT22;21500;45.308;9.488;2023-08-06T12:56:54;28.30;82.40
35395;DHT22;21500;45.308;9.488;2023-08-06T12:59:20;28.60;82.60
35395;DHT22;21500;45.308;9.488;2023-08-06T13:01:46;28.70;79.70
35395;DHT22;21500;45.308;9.488;2023-08-06T13:04:14;28.40;76.60
35395;DHT22;21500;45.308;9.488;2023-08-06T13:06:39;28.40;77.10
35395;DHT22;21500;45.308;9.488;2023-08-06T13:09:07;28.50;77.30
35395;DHT22;21500;45.308;9.488;2023-08-06T13:11:34;28.50;78.00
35395;DHT22;21500;45.308;9.488;2023-08-06T13:14:06;29.00;79.70
35395;DHT22;21500;45.308;9.488;2023-08-06T13:16:36;28.80;77.90
35395;DHT22;21500;45.308;9.488;2023-08-06T13:19:04;28.90;78.10
35395;DHT22;21500;45.308;9.488;2023-08-06T13:21:58;28.80;75.60
35395;DHT22;21500;45.308;9.488;2023-08-06T13:24:21;28.70;74.40
35395;DHT22;21500;45.308;9.488;2023-08-06T13:26:47;28.60;74.40
35395;DHT22;21500;45.308;9.488;2023-08-06T13:29:13;28.80;74.30
35395;DHT22;21500;45.308;9.488;2023-08-06T13:31:38;28.70;75.30
35395;DHT22;21500;45.308;9.488;2023-08-06T13:34:04;29.00;76.10
35395;DHT22;21500;45.308;9.488;2023-08-06T13:36:30;28.90;76.50
35395;DHT22;21500;45.308;9.488;2023-08-06T13:38:56;29.00;76.20
35395;DHT22;21500;45.308;9.488;2023-08-06T13:41:24;29.10;78.40
35395;DHT22;21500;45.308;9.488;2023-08-06T13:43:49;29.50;79.40
35395;DHT22;21500;45.308;9.488;2023-08-06T13:46:18;29.30;75.80
35395;DHT22;21500;45.308;9.488;2023-08-06T13:48:46;29.10;75.00
35395;DHT22;21500;45.308;9.488;2023-08-06T13:51:12;29.10;75.80
35395;DHT22;21500;45.308;9.488;2023-08-06T13:53:39;29.30;74.70
35395;DHT22;21500;45.308;9.488;2023-08-06T13:56:06;29.30;73.60
35395;DHT22;21500;45.308;9.488;2023-08-06T13:58:32;28.90;70.80
35395;DHT22;21500;45.308;9.488;2023-08-06T14:00:59;28.90;70.50
35395;DHT22;21500;45.308;9.488;2023-08-06T14:03:24;29.40;71.90
35395;DHT22;21500;45.308;9.488;2023-08-06T14:05:51;29.40;73.00
35395;DHT22;21500;45.308;9.488;2023-08-06T14:08:18;29.40;72.60
35395;DHT22;21500;45.308;9.488;2023-08-06T14:10:44;29.30;69.80
35395;DHT22;21500;45.308;9.488;2023-08-06T14:13:10;29.50;73.30
35395;DHT22;21500;45.308;9.488;2023-08-06T14:15:36;29.80;73.80
35395;DHT22;21500;45.308;9.488;2023-08-06T14:18:05;29.70;72.20
35395;DHT22;21500;45.308;9.488;2023-08-06T14:20:30;29.60;69.80
35395;DHT22;21500;45.308;9.488;2023-08-06T14:22:57;29.60;71.00
35395;DHT22;21500;45.308;9.488;2023-08-06T14:25:23;29.60;71.10
35395;DHT22;21500;45.308;9.488;2023-08-06T14:27:49;29.70;71.70
35395;DHT22;21500;45.308;9.488;2023-08-06T14:30:15;29.70;73.30
35395;DHT22;21500;45.308;9.488;2023-08-06T14:32:41;29.70;72.40
35395;DHT22;21500;45.308;9.488;2023-08-06T14:35:07;29.50;71.50
35395;DHT22;21500;45.308;9.488;2023-08-06T14:37:33;29.50;71.80
35395;DHT22;21500;45.308;9.488;2023-08-06T14:39:59;29.40;69.40
35395;DHT22;21500;45.308;9.488;2023-08-06T14:42:24;29.50;70.10
35395;DHT22;21500;45.308;9.488;2023-08-06T14:44:50;29.70;70.40
35395;DHT22;21500;45.308;9.488;2023-08-06T14:47:16;29.80;68.00
35395;DHT22;21500;45.308;9.488;2023-08-06T14:49:42;29.80;65.50
35395;DHT22;21500;45.308;9.488;2023-08-06T14:52:08;29.80;68.00
35395;DHT22;21500;45.308;9.488;2023-08-06T14:54:34;29.80;70.40
35395;DHT22;21500;45.308;9.488;2023-08-06T14:56:59;29.80;72.70
35395;DHT22;21500;45.308;9.488;2023-08-06T14:59:25;29.90;72.80
35395;DHT22;21500;45.308;9.488;2023-08-06T15:01:51;29.90;71.70
35395;DHT22;21500;45.308;9.488;2023-08-06T15:04:17;29.90;68.90
35395;DHT22;21500;45.308;9.488;2023-08-06T15:06:44;29.90;69.60
35395;DHT22;21500;45.308;9.488;2023-08-06T15:09:11;29.90;70.40
35395;DHT22;21500;45.308;9.488;2023-08-06T15:11:37;30.00;69.60
35395;DHT22;21500;45.308;9.488;2023-08-06T15:14:04;29.90;71.10
35395;DHT22;21500;45.308;9.488;2023-08-06T15:16:33;29.90;70.30
35395;DHT22;21500;45.308;9.488;2023-08-06T15:19:00;29.90;64.90
35395;DHT22;21500;45.308;9.488;2023-08-06T15:21:27;29.80;61.50
35395;DHT22;21500;45.308;9.488;2023-08-06T15:23:53;30.00;61.40
35395;DHT22;21500;45.308;9.488;2023-08-06T15:26:18;30.10;60.80
35395;DHT22;21500;45.308;9.488;2023-08-06T15:28:45;30.10;60.10
35395;DHT22;21500;45.308;9.488;2023-08-06T15:31:12;30.10;59.50
35395;DHT22;21500;45.308;9.488;2023-08-06T15:33:38;30.20;59.90
35395;DHT22;21500;45.308;9.488;2023-08-06T15:36:04;30.10;57.60
35395;DHT22;21500;45.308;9.488;2023-08-06T15:38:31;29.90;57.80
35395;DHT22;21500;45.308;9.488;2023-08-06T15:40:57;30.10;56.60
35395;DHT22;21500;45.308;9.488;2023-08-06T15:43:23;30.00;56.20
35395;DHT22;21500;45.308;9.488;2023-08-06T15:45:49;29.90;55.10
35395;DHT22;21500;45.308;9.488;2023-08-06T15:48:14;30.00;54.90
35395;DHT22;21500;45.308;9.488;2023-08-06T15:50:44;30.00;56.40
35395;DHT22;21500;45.308;9.488;2023-08-06T15:53:14;30.00;56.20
35395;DHT22;21500;45.308;9.488;2023-08-06T15:55:40;30.20;56.90
35395;DHT22;21500;45.308;9.488;2023-08-06T15:58:06;30.10;55.70
35395;DHT22;21500;45.308;9.488;2023-08-06T16:00:32;30.10;54.60
35395;DHT22;21500;45.308;9.488;2023-08-06T16:02:58;29.90;54.90
35395;DHT22;21500;45.308;9.488;2023-08-06T16:05:24;30.10;55.10
35395;DHT22;21500;45.308;9.488;2023-08-06T16:07:50;30.10;55.60
35395;DHT22;21500;45.308;9.488;2023-08-06T16:10:16;30.10;55.70
35395;DHT22;21500;45.308;9.488;2023-08-06T16:12:42;30.00;56.60
35395;DHT22;21500;45.308;9.488;2023-08-06T16:15:08;30.00;56.30
35395;DHT22;21500;45.308;9.488;2023-08-06T16:17:36;29.80;56.00
35395;DHT22;21500;45.308;9.488;2023-08-06T16:20:02;29.90;56.40
35395;DHT22;21500;45.308;9.488;2023-08-06T16:22:28;29.80;55.50
35395;DHT22;21500;45.308;9.488;2023-08-06T16:24:54;29.80;55.10
35395;DHT22;21500;45.308;9.488;2023-08-06T16:27:20;29.80;56.20
35395;DHT22;21500;45.308;9.488;2023-08-06T16:29:46;29.70;55.00
35395;DHT22;21500;45.308;9.488;2023-08-06T16:32:14;29.70;55.50
35395;DHT22;21500;45.308;9.488;2023-08-06T16:34:40;29.80;56.80
35395;DHT22;21500;45.308;9.488;2023-08-06T16:37:05;29.80;58.10
35395;DHT22;21500;45.308;9.488;2023-08-06T16:39:31;29.70;58.00
35395;DHT22;21500;45.308;9.488;2023-08-06T16:41:57;29.70;58.30
35395;DHT22;21500;45.308;9.488;2023-08-06T16:44:29;29.70;58.50
35395;DHT22;21500;45.308;9.488;2023-08-06T16:46:56;29.70;57.80
35395;DHT22;21500;45.308;9.488;2023-08-06T16:49:22;29.70;57.90
35395;DHT22;21500;45.308;9.488;2023-08-06T16:51:48;29.70;57.50
35395;DHT22;21500;45.308;9.488;2023-08-06T16:54:14;29.70;57.80
35395;DHT22;21500;45.308;9.488;2023-08-06T16:56:39;29.60;58.50
35395;DHT22;21500;45.308;9.488;2023-08-06T16:59:05;29.60;59.40
35395;DHT22;21500;45.308;9.488;2023-08-06T17:01:31;29.60;59.30
35395;DHT22;21500;45.308;9.488;2023-08-06T17:03:57;29.50;59.70
35395;DHT22;21500;45.308;9.488;2023-08-06T17:06:23;29.40;61.50
35395;DHT22;21500;45.308;9.488;2023-08-06T17:08:49;29.40;59.60
35395;DHT22;21500;45.308;9.488;2023-08-06T17:11:15;29.30;60.30
35395;DHT22;21500;45.308;9.488;2023-08-06T17:13:40;29.30;61.30
35395;DHT22;21500;45.308;9.488;2023-08-06T17:16:06;29.20;60.20
35395;DHT22;21500;45.308;9.488;2023-08-06T17:18:32;29.00;60.50
35395;DHT22;21500;45.308;9.488;2023-08-06T17:20:59;29.00;60.30
35395;DHT22;21500;45.308;9.488;2023-08-06T17:23:25;29.00;58.90
35395;DHT22;21500;45.308;9.488;2023-08-06T17:25:53;29.00;58.80
35395;DHT22;21500;45.308;9.488;2023-08-06T17:28:20;29.00;58.80
35395;DHT22;21500;45.308;9.488;2023-08-06T17:30:46;28.90;59.30
35395;DHT22;21500;45.308;9.488;2023-08-06T17:33:12;28.90;58.90
35395;DHT22;21500;45.308;9.488;2023-08-06T17:35:41;28.80;59.00
35395;DHT22;21500;45.308;9.488;2023-08-06T17:38:11;28.80;59.10
35395;DHT22;21500;45.308;9.488;2023-08-06T17:40:37;28.80;58.80
35395;DHT22;21500;45.308;9.488;2023-08-06T17:43:04;28.60;58.90
35395;DHT22;21500;45.308;9.488;2023-08-06T17:45:30;28.50;60.00
35395;DHT22;21500;45.308;9.488;2023-08-06T17:47:56;28.40;59.10
35395;DHT22;21500;45.308;9.488;2023-08-06T17:50:22;28.40;60.00
35395;DHT22;21500;45.308;9.488;2023-08-06T17:52:49;28.30;60.10
35395;DHT22;21500;45.308;9.488;2023-08-06T17:55:14;28.20;60.20
35395;DHT22;21500;45.308;9.488;2023-08-06T17:57:40;28.10;59.20
35395;DHT22;21500;45.308;9.488;2023-08-06T18:00:07;28.10;60.00
35395;DHT22;21500;45.308;9.488;2023-08-06T18:02:43;27.90;59.10
35395;DHT22;21500;45.308;9.488;2023-08-06T18:05:09;27.80;58.50
35395;DHT22;21500;45.308;9.488;2023-08-06T18:07:43;27.70;58.20
35395;DHT22;21500;45.308;9.488;2023-08-06T18:10:10;27.60;57.80
35395;DHT22;21500;45.308;9.488;2023-08-06T18:12:36;27.60;57.70
35395;DHT22;21500;45.308;9.488;2023-08-06T18:15:03;27.60;57.70
35395;DHT22;21500;45.308;9.488;2023-08-06T18:17:29;27.50;58.10
35395;DHT22;21500;45.308;9.488;2023-08-06T18:19:54;27.40;58.30
35395;DHT22;21500;45.308;9.488;2023-08-06T18:22:20;27.30;58.10
35395;DHT22;21500;45.308;9.488;2023-08-06T18:24:46;27.20;58.50
35395;DHT22;21500;45.308;9.488;2023-08-06T18:27:12;27.10;59.10
35395;DHT22;21500;45.308;9.488;2023-08-06T18:29:44;27.00;59.40
35395;DHT22;21500;45.308;9.488;2023-08-06T18:32:11;26.80;59.00
35395;DHT22;21500;45.308;9.488;2023-08-06T18:34:37;26.70;59.20
35395;DHT22;21500;45.308;9.488;2023-08-06T18:37:03;26.50;59.70
35395;DHT22;21500;45.308;9.488;2023-08-06T18:39:30;26.40;60.20
35395;DHT22;21500;45.308;9.488;2023-08-06T18:42:01;26.30;60.50
35395;DHT22;21500;45.308;9.488;2023-08-06T18:44:27;26.20;60.80
35395;DHT22;21500;45.308;9.488;2023-08-06T18:46:56;26.20;61.30
35395;DHT22;21500;45.308;9.488;2023-08-06T18:49:23;26.20;60.90
35395;DHT22;21500;45.308;9.488;2023-08-06T18:51:51;26.10;60.20
35395;DHT22;21500;45.308;9.488;2023-08-06T18:54:16;26.00;60.60
35395;DHT22;21500;45.308;9.488;2023-08-06T18:56:46;25.90;60.80
35395;DHT22;21500;45.308;9.488;2023-08-06T19:05:20;25.70;60.70
35395;DHT22;21500;45.308;9.488;2023-08-06T19:08:21;25.70;60.80
35395;DHT22;21500;45.308;9.488;2023-08-06T19:10:58;25.70;60.80
35395;DHT22;21500;45.308;9.488;2023-08-06T19:14:10;25.60;60.50
35395;DHT22;21500;45.308;9.488;2023-08-06T19:16:37;25.50;61.70
35395;DHT22;21500;45.308;9.488;2023-08-06T19:19:04;25.50;60.80
35395;DHT22;21500;45.308;9.488;2023-08-06T19:21:30;25.50;60.10
35395;DHT22;21500;45.308;9.488;2023-08-06T19:23:56;25.40;60.10
35395;DHT22;21500;45.308;9.488;2023-08-06T19:26:23;25.30;60.20
35395;DHT22;21500;45.308;9.488;2023-08-06T19:28:49;25.30;60.40
35395;DHT22;21500;45.308;9.488;2023-08-06T19:31:14;25.20;59.60
35395;DHT22;21500;45.308;9.488;2023-08-06T19:33:40;25.20;59.80
35395;DHT22;21500;45.308;9.488;2023-08-06T19:36:06;25.10;60.10
35395;DHT22;21500;45.308;9.488;2023-08-06T19:38:32;25.10;60.20
35395;DHT22;21500;45.308;9.488;2023-08-06T19:41:05;25.10;59.80
35395;DHT22;21500;45.308;9.488;2023-08-06T19:43:33;25.00;60.20
35395;DHT22;21500;45.308;9.488;2023-08-06T19:45:59;25.00;60.00
35395;DHT22;21500;45.308;9.488;2023-08-06T19:48:25;24.90;60.50
35395;DHT22;21500;45.308;9.488;2023-08-06T19:50:56;25.00;60.20
35395;DHT22;21500;45.308;9.488;2023-08-06T19:53:32;24.90;59.20
35395;DHT22;21500;45.308;9.488;2023-08-06T19:56:00;24.90;59.10
35395;DHT22;21500;45.308;9.488;2023-08-06T19:58:27;24.90;58.90
35395;DHT22;21500;45.308;9.488;2023-08-06T20:00:54;24.90;59.30
35395;DHT22;21500;45.308;9.488;2023-08-06T20:03:21;24.80;58.80
35395;DHT22;21500;45.308;9.488;2023-08-06T20:05:47;24.70;58.90
35395;DHT22;21500;45.308;9.488;2023-08-06T20:08:13;24.70;59.10
35395;DHT22;21500;45.308;9.488;2023-08-06T20:10:39;24.70;59.30
35395;DHT22;21500;45.308;9.488;2023-08-06T20:13:07;24.60;59.60
35395;DHT22;21500;45.308;9.488;2023-08-06T20:15:36;24.50;60.00
35395;DHT22;21500;45.308;9.488;2023-08-06T20:18:02;24.30;60.30
35395;DHT22;21500;45.308;9.488;2023-08-06T20:20:28;24.30;60.50
35395;DHT22;21500;45.308;9.488;2023-08-06T20:22:54;24.30;60.70
35395;DHT22;21500;45.308;9.488;2023-08-06T20:25:19;24.20;60.70
35395;DHT22;21500;45.308;9.488;2023-08-06T20:27:45;24.20;60.80
35395;DHT22;21500;45.308;9.488;2023-08-06T20:30:12;24.20;60.80
35395;DHT22;21500;45.308;9.488;2023-08-06T20:32:38;24.20;60.70
35395;DHT22;21500;45.308;9.488;2023-08-06T20:35:04;24.10;60.60
35395;DHT22;21500;45.308;9.488;2023-08-06T20:37:30;24.10;61.00
35395;DHT22;21500;45.308;9.488;2023-08-06T20:39:56;24.10;61.10
35395;DHT22;21500;45.308;9.488;2023-08-06T20:42:22;24.00;61.30
35395;DHT22;21500;45.308;9.488;2023-08-06T20:44:47;24.00;61.60
35395;DHT22;21500;45.308;9.488;2023-08-06T20:47:13;24.00;62.10
35395;DHT22;21500;45.308;9.488;2023-08-06T20:49:39;23.90;62.30
35395;DHT22;21500;45.308;9.488;2023-08-06T20:52:06;23.80;62.50
35395;DHT22;21500;45.308;9.488;2023-08-06T20:54:32;23.80;62.80
35395;DHT22;21500;45.308;9.488;2023-08-06T20:56:57;23.80;62.80
35395;DHT22;21500;45.308;9.488;2023-08-06T20:59:23;23.70;63.00
35395;DHT22;21500;45.308;9.488;2023-08-06T21:01:49;23.80;63.20
35395;DHT22;21500;45.308;9.488;2023-08-06T21:04:15;23.80;63.40
35395;DHT22;21500;45.308;9.488;2023-08-06T21:06:41;23.70;63.50
35395;DHT22;21500;45.308;9.488;2023-08-06T21:09:06;23.70;63.50
35395;DHT22;21500;45.308;9.488;2023-08-06T21:11:33;23.60;63.20
35395;DHT22;21500;45.308;9.488;2023-08-06T21:13:59;23.60;63.40
35395;DHT22;21500;45.308;9.488;2023-08-06T21:16:25;23.50;63.50